Time;durP1;ratioP1;P1;durP2;ratioP2;P2;SDS_P1;SDS_P2;PMS_P1;PMS_P2;Temp;Humidity;BMP_temperature;BMP_pressure;BME280_temperature;BME280_humidity;BME280_pressure;Samples;Min_cycle;Max_cycle;Signal;HPM_P1;HPM_P2
2022/10/01 00:02:01;;;;;;;8.30;6.70;;;;;;;;;;106876;1302;22513;-36
2022/10/01 00:04:30;;;;;;;7.40;6.50;;;;;;;;;;106994;1296;23038;-36
2022/10/01 00:07:03;;;;;;;8.20;7.10;;;;;;;;;;107004;1295;23164;-36
2022/10/01 00:09:33;;;;;;;7.50;6.00;;;;;;;;;;107017;1298;22567;-38
2022/10/01 00:12:02;;;;;;;8.80;6.60;;;;;;;;;;106961;1295;25171;-36
2022/10/01 00:14:31;;;;;;;8.50;6.80;;;;;;;;;;106847;1302;22662;-37
2022/10/01 00:17:00;;;;;;;7.30;6.20;;;;;;;;;;106844;1302;22638;-36
2022/10/01 00:19:32;;;;;;;8.30;6.90;;;;;;;;;;106846;1298;22573;-36
2022/10/01 00:22:01;;;;;;;8.40;6.50;;;;;;;;;;106836;1302;22554;-36
2022/10/01 00:24:30;;;;;;;8.40;6.90;;;;;;;;;;106798;1301;22567;-36
2022/10/01 00:26:59;;;;;;;8.20;6.80;;;;;;;;;;106815;1302;22529;-36
2022/10/01 00:29:30;;;;;;;8.00;6.60;;;;;;;;;;106825;1295;23862;-37
2022/10/01 00:32:00;;;;;;;8.20;6.80;;;;;;;;;;106964;1294;23034;-37
2022/10/01 00:34:32;;;;;;;8.20;6.50;;;;;;;;;;106858;1298;22567;-37
2022/10/01 00:37:01;;;;;;;7.20;6.40;;;;;;;;;;106841;1295;24030;-37
2022/10/01 00:39:30;;;;;;;8.80;7.10;;;;;;;;;;106857;1302;25367;-36
2022/10/01 00:41:59;;;;;;;8.10;6.90;;;;;;;;;;106839;1302;22635;-37
2022/10/01 00:44:33;;;;;;;7.50;6.10;;;;;;;;;;107003;1290;22786;-36
2022/10/01 00:47:06;;;;;;;8.10;6.60;;;;;;;;;;106995;1295;23603;-37
2022/10/01 00:49:36;;;;;;;8.40;6.90;;;;;;;;;;107003;1295;22564;-37
2022/10/01 00:52:07;;;;;;;9.00;7.00;;;;;;;;;;107006;1294;22912;-37
2022/10/01 00:54:42;;;;;;;7.70;6.60;;;;;;;;;;106823;1299;22538;-37
2022/10/01 00:57:14;;;;;;;7.80;6.70;;;;;;;;;;106835;1302;22563;-37
2022/10/01 00:59:43;;;;;;;8.40;6.90;;;;;;;;;;106850;1302;22584;-37
2022/10/01 01:02:13;;;;;;;8.50;6.50;;;;;;;;;;106860;1302;22571;-37
2022/10/01 01:04:43;;;;;;;8.10;6.80;;;;;;;;;;106963;1302;28017;-37
2022/10/01 01:07:13;;;;;;;8.30;6.80;;;;;;;;;;106981;1295;23206;-37
2022/10/01 01:09:43;;;;;;;7.20;6.40;;;;;;;;;;107004;1302;22503;-37
2022/10/01 01:12:16;;;;;;;7.90;7.00;;;;;;;;;;106981;1299;22851;-37
2022/10/01 01:14:48;;;;;;;8.30;6.60;;;;;;;;;;106844;1302;22594;-37
2022/10/01 01:17:16;;;;;;;;;;;;;;;;;;106816;1300;22593;-37
2022/10/01 01:19:54;;;;;;;8.20;7.00;;;;;;;;;;106832;1302;25347;-37
2022/10/01 01:22:24;;;;;;;7.90;6.60;;;;;;;;;;106831;1302;22562;-37
2022/10/01 01:24:57;;;;;;;8.60;6.80;;;;;;;;;;106938;1302;22537;-37
2022/10/01 01:27:34;;;;;;;8.00;6.50;;;;;;;;;;106992;1302;24245;-36
2022/10/01 01:30:04;;;;;;;8.30;7.00;;;;;;;;;;106998;1302;22532;-37
2022/10/01 01:32:37;;;;;;;8.80;6.40;;;;;;;;;;106984;1302;22550;-37
2022/10/01 01:35:11;;;;;;;8.70;6.90;;;;;;;;;;106805;1302;22540;-37
2022/10/01 01:37:45;;;;;;;7.90;7.10;;;;;;;;;;106844;1302;22534;-37
2022/10/01 01:40:15;;;;;;;7.90;6.80;;;;;;;;;;106835;1302;22627;-37
2022/10/01 01:42:45;;;;;;;7.70;6.90;;;;;;;;;;106832;1302;22550;-37
2022/10/01 01:45:17;;;;;;;8.00;6.90;;;;;;;;;;106952;1302;22771;-37
2022/10/01 01:47:47;;;;;;;8.20;6.90;;;;;;;;;;106984;1294;22662;-37
2022/10/01 01:50:17;;;;;;;8.10;7.00;;;;;;;;;;107037;1302;22519;-37
2022/10/01 01:52:47;;;;;;;8.00;6.60;;;;;;;;;;107021;1300;22679;-37
2022/10/01 01:55:17;;;;;;;7.30;6.30;;;;;;;;;;106825;1295;23082;-37
2022/10/01 01:57:47;;;;;;;8.50;7.30;;;;;;;;;;106872;1302;22584;-37
2022/10/01 02:00:16;;;;;;;8.10;6.60;;;;;;;;;;106843;1298;22525;-37
2022/10/01 02:02:48;;;;;;;7.80;6.80;;;;;;;;;;106840;1295;23680;-37
2022/10/01 02:05:19;;;;;;;8.20;6.80;;;;;;;;;;106909;1302;22548;-38
2022/10/01 02:07:56;;;;;;;7.80;6.40;;;;;;;;;;106971;1300;22698;-38
2022/10/01 02:10:32;;;;;;;8.10;6.90;;;;;;;;;;106997;1295;23238;-37
2022/10/01 02:13:09;;;;;;;7.90;7.00;;;;;;;;;;107032;1295;23887;-37
2022/10/01 02:15:46;;;;;;;8.30;7.10;;;;;;;;;;106833;1302;22539;-37
2022/10/01 02:18:21;;;;;;;8.40;7.40;;;;;;;;;;106831;1295;23246;-37
2022/10/01 02:20:55;;;;;;;8.00;7.20;;;;;;;;;;106834;1295;22976;-38
2022/10/01 02:23:28;;;;;;;8.60;7.10;;;;;;;;;;106839;1298;25405;-37
2022/10/01 02:25:55;;;;;;;;;;;;;;;;;;106932;1295;23434;-37
2022/10/01 02:28:25;;;;;;;8.10;7.00;;;;;;;;;;107037;1296;23198;-37
2022/10/01 02:30:55;;;;;;;8.00;7.20;;;;;;;;;;107022;1295;23207;-37
2022/10/01 02:33:25;;;;;;;8.00;6.80;;;;;;;;;;106978;1298;22530;-37
2022/10/01 02:35:56;;;;;;;8.30;7.40;;;;;;;;;;106823;1297;23033;-37
2022/10/01 02:38:26;;;;;;;8.10;7.30;;;;;;;;;;106852;1296;23699;-37
2022/10/01 02:40:57;;;;;;;8.60;7.60;;;;;;;;;;106788;1302;22537;-38
2022/10/01 02:43:31;;;;;;;8.80;7.70;;;;;;;;;;106811;1298;22532;-37
2022/10/01 02:46:05;;;;;;;8.70;7.80;;;;;;;;;;106917;1299;22547;-37
2022/10/01 02:48:34;;;;;;;9.10;7.70;;;;;;;;;;107033;1295;23066;-37
2022/10/01 02:51:12;;;;;;;8.90;7.90;;;;;;;;;;106998;1295;22543;-37
2022/10/01 02:53:43;;;;;;;8.60;7.60;;;;;;;;;;106989;1295;23789;-37
2022/10/01 02:56:13;;;;;;;8.70;7.80;;;;;;;;;;106830;1295;22962;-37
2022/10/01 02:58:42;;;;;;;8.90;7.70;;;;;;;;;;106809;1302;22544;-37
2022/10/01 03:01:11;;;;;;;9.00;7.80;;;;;;;;;;106821;1294;23157;-37
2022/10/01 03:03:42;;;;;;;8.50;7.60;;;;;;;;;;106852;1298;22554;-37
2022/10/01 03:06:10;;;;;;;8.40;7.40;;;;;;;;;;106882;1302;22541;-37
2022/10/01 03:08:40;;;;;;;9.10;7.70;;;;;;;;;;107009;1299;22613;-37
2022/10/01 03:11:09;;;;;;;8.50;7.60;;;;;;;;;;107018;1295;25200;-37
2022/10/01 03:13:38;;;;;;;8.40;7.40;;;;;;;;;;106979;1298;22556;-37
2022/10/01 03:16:09;;;;;;;8.70;7.60;;;;;;;;;;106880;1298;22521;-37
2022/10/01 03:18:38;;;;;;;8.60;7.70;;;;;;;;;;106837;1295;23947;-37
2022/10/01 03:21:07;;;;;;;8.60;7.70;;;;;;;;;;106844;1295;22589;-37
2022/10/01 03:23:36;;;;;;;8.20;7.30;;;;;;;;;;106825;1295;23776;-38
2022/10/01 03:26:05;;;;;;;9.30;8.40;;;;;;;;;;106858;1302;22488;-37
2022/10/01 03:28:34;;;;;;;9.10;8.20;;;;;;;;;;107024;1302;22684;-37
2022/10/01 03:31:07;;;;;;;8.50;7.60;;;;;;;;;;107006;1295;23088;-37
2022/10/01 03:33:37;;;;;;;8.70;7.50;;;;;;;;;;107044;1301;22614;-37
2022/10/01 03:36:06;;;;;;;8.90;7.70;;;;;;;;;;106945;1298;23584;-37
2022/10/01 03:38:35;;;;;;;8.60;7.50;;;;;;;;;;106822;1299;25197;-37
2022/10/01 03:41:04;;;;;;;9.00;7.90;;;;;;;;;;106842;1298;22576;-37
2022/10/01 03:43:33;;;;;;;8.70;7.80;;;;;;;;;;106827;1300;22537;-37
2022/10/01 03:46:02;;;;;;;9.10;8.00;;;;;;;;;;106810;1302;22761;-37
2022/10/01 03:48:31;;;;;;;8.60;7.70;;;;;;;;;;106998;1301;23122;-37
2022/10/01 03:51:00;;;;;;;8.40;7.50;;;;;;;;;;107001;1295;22633;-37
2022/10/01 03:53:30;;;;;;;8.50;7.60;;;;;;;;;;106996;1298;22597;-37
2022/10/01 03:56:00;;;;;;;8.50;7.50;;;;;;;;;;106937;1295;22561;-37
2022/10/01 03:58:29;;;;;;;9.20;8.10;;;;;;;;;;106849;1298;22527;-37
2022/10/01 04:00:59;;;;;;;8.80;7.50;;;;;;;;;;106815;1302;22568;-38
2022/10/01 04:03:29;;;;;;;8.50;7.50;;;;;;;;;;106839;1298;22706;-37
2022/10/01 04:05:58;;;;;;;8.80;7.90;;;;;;;;;;106808;1299;22532;-37
2022/10/01 04:08:27;;;;;;;8.80;7.90;;;;;;;;;;106982;1294;23822;-37
2022/10/01 04:10:57;;;;;;;8.90;7.80;;;;;;;;;;107012;1301;22562;-37
2022/10/01 04:13:26;;;;;;;8.50;7.70;;;;;;;;;;107030;1302;22607;-37
2022/10/01 04:15:55;;;;;;;8.80;7.90;;;;;;;;;;107002;1291;22717;-37
2022/10/01 04:18:24;;;;;;;8.90;8.00;;;;;;;;;;106773;1302;22538;-37
2022/10/01 04:20:53;;;;;;;8.90;7.60;;;;;;;;;;106836;1294;23082;-38
2022/10/01 04:23:22;;;;;;;9.00;7.50;;;;;;;;;;106802;1297;23774;-37
2022/10/01 04:25:51;;;;;;;9.20;8.20;;;;;;;;;;106821;1298;22629;-38
2022/10/01 04:28:20;;;;;;;9.10;8.00;;;;;;;;;;106955;1299;22551;-37
2022/10/01 04:31:23;;;;;;;8.80;7.80;;;;;;;;;;106986;1295;25199;-37
2022/10/01 04:33:39;;;;;;;9.70;7.80;;;;;;;;;;107018;1300;22559;-38
2022/10/01 04:36:08;;;;;;;9.10;7.80;;;;;;;;;;107004;1298;22521;-37
2022/10/01 04:38:37;;;;;;;9.10;7.90;;;;;;;;;;106849;1298;22561;-37
2022/10/01 04:41:08;;;;;;;9.00;8.10;;;;;;;;;;106842;1295;23724;-37
2022/10/01 04:43:37;;;;;;;9.30;8.00;;;;;;;;;;106834;1298;22980;-37
2022/10/01 04:46:06;;;;;;;8.80;7.90;;;;;;;;;;106835;1298;22651;-37
2022/10/01 04:48:35;;;;;;;9.60;8.30;;;;;;;;;;106906;1302;22526;-37
2022/10/01 04:51:05;;;;;;;8.80;7.80;;;;;;;;;;107009;1298;22549;-37
2022/10/01 04:53:34;;;;;;;10.20;8.40;;;;;;;;;;106999;1295;23143;-37
2022/10/01 04:56:03;;;;;;;8.40;7.50;;;;;;;;;;107021;1295;22554;-37
2022/10/01 04:58:32;;;;;;;8.80;7.90;;;;;;;;;;106765;1303;22547;-38
2022/10/01 05:01:01;;;;;;;9.00;7.90;;;;;;;;;;106838;1299;22635;-37
2022/10/01 05:03:31;;;;;;;9.10;7.80;;;;;;;;;;106752;1303;22528;-37
2022/10/01 05:06:02;;;;;;;8.80;7.60;;;;;;;;;;106848;1296;25179;-37
2022/10/01 05:08:31;;;;;;;9.70;7.80;;;;;;;;;;106871;1302;25253;-38
2022/10/01 05:11:01;;;;;;;8.80;7.90;;;;;;;;;;107017;1295;22558;-37
2022/10/01 05:13:31;;;;;;;8.70;7.50;;;;;;;;;;107002;1294;22703;-38
2022/10/01 05:16:01;;;;;;;9.40;7.70;;;;;;;;;;107006;1302;22509;-38
2022/10/01 05:18:30;;;;;;;8.70;7.50;;;;;;;;;;106914;1299;22533;-36
2022/10/01 05:21:03;;;;;;;9.10;7.50;;;;;;;;;;106638;1299;257323;-35
2022/10/01 05:23:33;;;;;;;9.20;7.80;;;;;;;;;;106843;1295;22803;-35
2022/10/01 05:26:04;;;;;;;8.40;7.50;;;;;;;;;;106860;1302;22586;-36
2022/10/01 05:28:33;;;;;;;9.50;7.50;;;;;;;;;;106862;1299;22694;-38
2022/10/01 05:31:03;;;;;;;8.30;7.40;;;;;;;;;;106998;1298;22554;-37
2022/10/01 05:33:34;;;;;;;8.40;7.50;;;;;;;;;;107003;1298;22555;-37
2022/10/01 05:36:05;;;;;;;9.00;7.60;;;;;;;;;;106987;1302;22561;-38
2022/10/01 05:38:36;;;;;;;8.50;7.00;;;;;;;;;;106934;1302;25336;-35
2022/10/01 05:41:06;;;;;;;9.00;7.80;;;;;;;;;;106847;1302;22558;-36
2022/10/01 05:43:35;;;;;;;8.90;7.50;;;;;;;;;;106857;1295;23246;-35
2022/10/01 05:46:05;;;;;;;8.70;7.40;;;;;;;;;;106850;1295;22898;-36
2022/10/01 05:48:35;;;;;;;9.00;7.50;;;;;;;;;;106895;1300;22691;-35
2022/10/01 05:51:07;;;;;;;8.60;7.60;;;;;;;;;;107029;1299;24155;-37
2022/10/01 05:53:37;;;;;;;8.80;7.80;;;;;;;;;;107023;1298;22529;-35
2022/10/01 05:56:07;;;;;;;8.30;7.00;;;;;;;;;;107002;1295;25193;-37
2022/10/01 05:58:36;;;;;;;8.50;7.60;;;;;;;;;;106948;1300;22553;-38
2022/10/01 06:01:05;;;;;;;8.70;7.60;;;;;;;;;;106795;1297;23140;-37
2022/10/01 06:03:37;;;;;;;8.20;7.30;;;;;;;;;;106857;1302;22579;-37
2022/10/01 06:06:06;;;;;;;8.80;7.70;;;;;;;;;;106845;1302;22566;-37
2022/10/01 06:08:37;;;;;;;8.90;7.70;;;;;;;;;;106823;1302;25327;-37
2022/10/01 06:11:06;;;;;;;8.40;7.60;;;;;;;;;;107004;1295;22612;-37
2022/10/01 06:13:36;;;;;;;7.90;7.10;;;;;;;;;;107010;1302;22579;-38
2022/10/01 06:16:06;;;;;;;10.40;8.40;;;;;;;;;;106830;1300;25158;-38
2022/10/01 06:18:36;;;;;;;8.50;7.20;;;;;;;;;;106982;1295;22639;-37
2022/10/01 06:21:05;;;;;;;8.20;7.30;;;;;;;;;;106865;1296;22563;-37
2022/10/01 06:23:35;;;;;;;8.50;7.30;;;;;;;;;;106853;1302;22544;-37
2022/10/01 06:26:05;;;;;;;8.90;7.80;;;;;;;;;;106840;1298;23093;-37
2022/10/01 06:28:34;;;;;;;8.80;7.30;;;;;;;;;;106838;1299;22646;-37
2022/10/01 06:31:04;;;;;;;9.20;7.50;;;;;;;;;;106951;1298;22557;-37
2022/10/01 06:33:33;;;;;;;8.60;7.70;;;;;;;;;;106987;1295;22565;-38
2022/10/01 06:36:03;;;;;;;8.50;7.60;;;;;;;;;;107011;1298;22543;-38
2022/10/01 06:38:32;;;;;;;8.00;7.20;;;;;;;;;;106990;1299;25238;-38
2022/10/01 06:41:02;;;;;;;8.60;7.60;;;;;;;;;;106818;1295;22548;-37
2022/10/01 06:43:32;;;;;;;8.30;7.30;;;;;;;;;;106841;1298;22559;-39
2022/10/01 06:46:05;;;;;;;8.60;7.70;;;;;;;;;;106820;1302;22617;-38
2022/10/01 06:48:35;;;;;;;8.60;7.60;;;;;;;;;;106849;1299;23503;-37
2022/10/01 06:51:04;;;;;;;8.20;7.20;;;;;;;;;;106940;1302;22571;-37
2022/10/01 06:53:33;;;;;;;8.50;7.40;;;;;;;;;;106991;1294;25212;-37
2022/10/01 06:56:07;;;;;;;8.50;7.40;;;;;;;;;;106993;1301;25203;-38
2022/10/01 06:58:45;;;;;;;8.00;7.10;;;;;;;;;;106915;1294;22532;-37
2022/10/01 07:01:18;;;;;;;8.40;7.10;;;;;;;;;;106952;1295;22564;-38
2022/10/01 07:03:47;;;;;;;8.20;6.90;;;;;;;;;;106986;1302;22607;-38
2022/10/01 07:06:16;;;;;;;7.70;6.90;;;;;;;;;;107019;1295;22540;-38
2022/10/01 07:08:48;;;;;;;7.80;6.90;;;;;;;;;;106688;1298;23796;-38
2022/10/01 07:11:17;;;;;;;7.90;7.00;;;;;;;;;;106747;1297;23749;-37
2022/10/01 07:13:47;;;;;;;8.00;7.20;;;;;;;;;;106749;1303;22502;-38
2022/10/01 07:16:16;;;;;;;8.30;7.20;;;;;;;;;;106765;1298;23128;-36
2022/10/01 07:18:47;;;;;;;8.30;7.10;;;;;;;;;;106763;1303;22539;-40
2022/10/01 07:21:16;;;;;;;7.70;6.90;;;;;;;;;;106744;1301;22573;-40
2022/10/01 07:23:50;;;;;;;8.00;7.20;;;;;;;;;;106545;1297;22579;-40
2022/10/01 07:26:19;;;;;;;7.90;6.90;;;;;;;;;;106530;1301;25360;-40
2022/10/01 07:28:48;;;;;;;8.10;7.30;;;;;;;;;;106525;1297;22562;-40
2022/10/01 07:31:17;;;;;;;8.00;7.00;;;;;;;;;;106503;1297;22556;-38
2022/10/01 07:33:47;;;;;;;8.50;6.80;;;;;;;;;;106512;1297;23112;-40
2022/10/01 07:36:19;;;;;;;8.60;7.20;;;;;;;;;;106558;1298;22960;-42
2022/10/01 07:38:50;;;;;;;7.80;6.90;;;;;;;;;;106539;1297;22557;-41
2022/10/01 07:41:19;;;;;;;8.30;6.80;;;;;;;;;;106525;1298;22593;-38
2022/10/01 07:43:48;;;;;;;8.40;6.80;;;;;;;;;;106571;1305;22623;-39
2022/10/01 07:46:17;;;;;;;7.80;7.00;;;;;;;;;;106544;1298;23444;-38
2022/10/01 07:48:49;;;;;;;8.20;7.20;;;;;;;;;;106543;1297;22539;-38
2022/10/01 07:51:18;;;;;;;8.10;7.10;;;;;;;;;;106679;1297;23235;-38
2022/10/01 07:53:49;;;;;;;7.20;6.50;;;;;;;;;;106688;1297;22750;-38
2022/10/01 07:56:18;;;;;;;7.90;6.70;;;;;;;;;;106717;1300;22608;-36
2022/10/01 07:58:48;;;;;;;7.70;6.90;;;;;;;;;;106693;1304;23863;-35
2022/10/01 08:01:17;;;;;;;8.20;7.00;;;;;;;;;;106668;1301;22521;-36
2022/10/01 08:03:47;;;;;;;8.30;7.10;;;;;;;;;;106700;1298;22548;-36
2022/10/01 08:06:16;;;;;;;7.40;6.40;;;;;;;;;;106746;1301;22580;-36
2022/10/01 08:08:46;;;;;;;7.70;6.90;;;;;;;;;;106661;1297;23052;-36
2022/10/01 08:11:16;;;;;;;8.20;6.90;;;;;;;;;;106652;1298;23842;-36
2022/10/01 08:13:46;;;;;;;8.50;6.80;;;;;;;;;;106673;1304;22532;-36
2022/10/01 08:16:15;;;;;;;8.00;6.50;;;;;;;;;;106657;1297;22603;-36
2022/10/01 08:18:44;;;;;;;7.80;6.40;;;;;;;;;;106682;1304;22504;-36
2022/10/01 08:21:13;;;;;;;7.70;6.90;;;;;;;;;;106626;1304;22541;-36
2022/10/01 08:23:45;;;;;;;7.70;6.80;;;;;;;;;;106724;1304;22645;-37
2022/10/01 08:26:14;;;;;;;7.60;6.60;;;;;;;;;;106654;1304;22578;-37
2022/10/01 08:28:43;;;;;;;7.80;6.70;;;;;;;;;;106697;1304;22669;-36
2022/10/01 08:31:12;;;;;;;7.50;6.70;;;;;;;;;;106650;1301;22576;-37
2022/10/01 08:33:41;;;;;;;7.70;6.40;;;;;;;;;;106652;1301;22714;-36
2022/10/01 08:36:10;;;;;;;8.00;6.70;;;;;;;;;;106687;1301;22513;-37
2022/10/01 08:38:39;;;;;;;8.30;7.50;;;;;;;;;;106478;1301;22579;-40
2022/10/01 08:41:16;;;;;;;8.00;7.20;;;;;;;;;;106677;1301;25354;-40
2022/10/01 08:43:45;;;;;;;8.00;7.10;;;;;;;;;;106635;1304;32013;-41
2022/10/01 08:46:16;;;;;;;7.90;7.00;;;;;;;;;;106688;1304;22547;-40
2022/10/01 08:48:52;;;;;;;7.90;7.10;;;;;;;;;;106693;1304;22555;-40
2022/10/01 08:51:25;;;;;;;8.40;7.50;;;;;;;;;;106700;1297;22623;-37
2022/10/01 08:53:53;;;;;;;;;;;;;;;;;;106648;1297;23287;-37
2022/10/01 08:56:34;;;;;;;8.30;6.70;;;;;;;;;;106690;1301;22602;-36
2022/10/01 08:59:10;;;;;;;8.30;6.60;;;;;;;;;;106672;1297;23573;-36
2022/10/01 09:01:39;;;;;;;7.10;6.40;;;;;;;;;;106705;1301;22540;-36
2022/10/01 09:04:09;;;;;;;7.80;7.00;;;;;;;;;;106629;1304;22537;-36
2022/10/01 09:06:38;;;;;;;8.00;7.10;;;;;;;;;;106683;1297;22631;-39
2022/10/01 09:09:18;;;;;;;7.70;6.90;;;;;;;;;;106830;1302;23472;-40
2022/10/01 09:11:58;;;;;;;7.70;6.90;;;;;;;;;;106811;1301;22673;-39
2022/10/01 09:14:36;;;;;;;7.90;6.70;;;;;;;;;;106789;1303;32756;-39
2022/10/01 09:17:09;;;;;;;7.20;6.50;;;;;;;;;;106808;1295;25812;-39
2022/10/01 09:19:45;;;;;;;7.80;6.60;;;;;;;;;;106834;1300;22576;-39
2022/10/01 09:22:18;;;;;;;8.60;6.90;;;;;;;;;;106814;1299;22506;-39
2022/10/01 09:24:50;;;;;;;7.50;6.70;;;;;;;;;;106842;1303;22522;-39
2022/10/01 09:27:23;;;;;;;7.80;6.50;;;;;;;;;;106839;1295;23217;-39
2022/10/01 09:29:55;;;;;;;7.10;6.30;;;;;;;;;;106842;1295;25202;-39
2022/10/01 09:32:26;;;;;;;6.90;6.20;;;;;;;;;;106845;1299;22537;-39
2022/10/01 09:34:59;;;;;;;7.20;6.30;;;;;;;;;;106790;1303;31742;-39
2022/10/01 09:37:31;;;;;;;6.80;6.00;;;;;;;;;;106840;1298;22620;-39
2022/10/01 09:40:08;;;;;;;7.60;6.70;;;;;;;;;;106830;1303;22587;-39
2022/10/01 09:42:37;;;;;;;7.30;6.20;;;;;;;;;;106822;1302;22615;-39
2022/10/01 09:45:07;;;;;;;7.00;5.90;;;;;;;;;;106765;1300;22629;-39
2022/10/01 09:47:36;;;;;;;6.60;5.70;;;;;;;;;;106807;1295;22511;-39
2022/10/01 09:50:06;;;;;;;7.20;6.30;;;;;;;;;;106834;1297;23964;-39
2022/10/01 09:52:38;;;;;;;6.80;5.80;;;;;;;;;;106811;1303;22621;-39
2022/10/01 09:55:11;;;;;;;6.50;5.80;;;;;;;;;;106812;1301;22551;-39
2022/10/01 09:57:42;;;;;;;7.50;6.40;;;;;;;;;;106783;1303;22563;-39
2022/10/01 10:00:15;;;;;;;7.50;6.30;;;;;;;;;;106786;1303;22537;-40
2022/10/01 10:02:46;;;;;;;6.90;6.20;;;;;;;;;;106844;1299;22566;-39
2022/10/01 10:05:16;;;;;;;7.00;6.00;;;;;;;;;;106772;1299;22609;-39
2022/10/01 10:07:46;;;;;;;6.70;6.00;;;;;;;;;;106806;1299;22944;-40
2022/10/01 10:10:19;;;;;;;6.70;6.00;;;;;;;;;;106774;1295;25339;-39
2022/10/01 10:12:54;;;;;;;6.90;6.20;;;;;;;;;;106808;1300;22545;-39
2022/10/01 10:15:25;;;;;;;6.20;5.40;;;;;;;;;;106747;1301;25350;-39
2022/10/01 10:17:56;;;;;;;6.90;6.10;;;;;;;;;;106828;1301;22551;-39
2022/10/01 10:20:29;;;;;;;6.40;5.60;;;;;;;;;;106761;1300;23074;-39
2022/10/01 10:23:09;;;;;;;7.30;6.00;;;;;;;;;;106808;1301;22606;-39
2022/10/01 10:25:38;;;;;;;7.50;5.40;;;;;;;;;;106779;1299;22555;-39
2022/10/01 10:28:18;;;;;;;6.50;5.70;;;;;;;;;;106830;1295;23732;-39
2022/10/01 10:30:47;;;;;;;6.60;5.90;;;;;;;;;;106833;1295;22925;-39
2022/10/01 10:33:19;;;;;;;6.40;5.70;;;;;;;;;;106846;1295;23402;-39
2022/10/01 10:35:57;;;;;;;6.30;5.20;;;;;;;;;;106785;1297;22550;-39
2022/10/01 10:38:29;;;;;;;6.00;5.40;;;;;;;;;;106817;1299;22571;-39
2022/10/01 10:40:59;;;;;;;6.50;5.80;;;;;;;;;;106812;1301;22594;-39
2022/10/01 10:43:30;;;;;;;6.20;5.40;;;;;;;;;;106795;1295;23101;-39
2022/10/01 10:45:59;;;;;;;6.30;5.20;;;;;;;;;;106771;1301;22564;-39
2022/10/01 10:48:31;;;;;;;6.90;5.70;;;;;;;;;;106808;1295;23208;-39
2022/10/01 10:51:01;;;;;;;7.10;5.40;;;;;;;;;;106809;1295;22799;-41
2022/10/01 10:53:42;;;;;;;6.90;5.70;;;;;;;;;;106818;1295;22600;-40
2022/10/01 10:56:18;;;;;;;6.60;5.20;;;;;;;;;;106811;1303;22584;-39
2022/10/01 10:58:48;;;;;;;6.30;5.40;;;;;;;;;;106805;1301;22544;-39
2022/10/01 11:01:21;;;;;;;7.20;5.60;;;;;;;;;;106823;1302;22622;-39
2022/10/01 11:03:48;;;;;;;;;;;;;;;;;;106850;1295;22536;-40
2022/10/01 11:06:18;;;;;;;6.70;5.50;;;;;;;;;;106782;1303;22548;-39
2022/10/01 11:08:55;;;;;;;7.50;5.70;;;;;;;;;;106835;1295;22556;-39
2022/10/01 11:11:33;;;;;;;9.50;6.40;;;;;;;;;;106837;1295;22600;-39
2022/10/01 11:14:08;;;;;;;8.00;5.90;;;;;;;;;;106826;1295;23685;-40
2022/10/01 11:16:43;;;;;;;7.60;6.00;;;;;;;;;;106813;1295;23208;-39
2022/10/01 11:19:19;;;;;;;7.40;5.60;;;;;;;;;;106844;1301;22566;-40
2022/10/01 11:21:58;;;;;;;7.90;5.30;;;;;;;;;;106813;1295;23255;-40
2022/10/01 11:24:49;;;;;;;7.20;5.70;;;;;;;;;;106826;1295;22615;-39
2022/10/01 11:27:23;;;;;;;6.70;5.10;;;;;;;;;;106640;1295;32170;-40
2022/10/01 11:29:55;;;;;;;7.50;5.40;;;;;;;;;;106847;1300;22688;-40
2022/10/01 11:32:29;;;;;;;7.40;5.30;;;;;;;;;;106840;1303;22580;-40
2022/10/01 11:35:11;;;;;;;7.00;5.30;;;;;;;;;;106837;1303;22547;-40
2022/10/01 11:37:47;;;;;;;8.10;5.60;;;;;;;;;;106782;1295;33758;-40
2022/10/01 11:40:20;;;;;;;7.30;5.20;;;;;;;;;;106848;1301;24268;-39
2022/10/01 11:42:50;;;;;;;6.70;5.40;;;;;;;;;;106850;1295;22765;-40
2022/10/01 11:45:22;;;;;;;6.90;4.80;;;;;;;;;;106851;1302;22553;-41
2022/10/01 11:47:52;;;;;;;7.50;5.60;;;;;;;;;;106802;1303;24151;-40
2022/10/01 11:50:24;;;;;;;7.00;4.90;;;;;;;;;;106832;1299;22681;-41
2022/10/01 11:52:56;;;;;;;7.90;5.30;;;;;;;;;;106828;1295;22571;-40
2022/10/01 12:01:15;;;;;;;6.80;4.90;;;;;;;;;;106479;1303;22541;-41
2022/10/01 12:03:49;;;;;;;6.60;5.00;;;;;;;;;;106830;1295;23972;-39
2022/10/01 12:06:20;;;;;;;7.00;4.80;;;;;;;;;;106801;1295;23925;-39
2022/10/01 12:08:53;;;;;;;6.30;5.20;;;;;;;;;;106839;1295;22630;-39
2022/10/01 12:11:28;;;;;;;7.60;5.00;;;;;;;;;;106820;1298;22585;-40
2022/10/01 12:14:02;;;;;;;7.40;4.80;;;;;;;;;;106841;1300;22559;-40
2022/10/01 12:16:36;;;;;;;6.80;4.80;;;;;;;;;;106812;1300;25175;-40
2022/10/01 12:19:10;;;;;;;7.50;5.10;;;;;;;;;;106821;1303;22549;-40
2022/10/01 12:21:42;;;;;;;6.00;4.50;;;;;;;;;;106833;1302;22635;-40
2022/10/01 12:24:13;;;;;;;8.10;5.30;;;;;;;;;;106810;1302;22587;-40
2022/10/01 12:26:47;;;;;;;7.80;5.40;;;;;;;;;;106768;1299;22531;-41
2022/10/01 12:29:19;;;;;;;7.00;4.80;;;;;;;;;;106777;1303;22609;-40
2022/10/01 12:31:55;;;;;;;6.70;4.90;;;;;;;;;;106794;1299;22558;-40
2022/10/01 12:34:32;;;;;;;7.00;5.10;;;;;;;;;;106772;1299;22575;-39
2022/10/01 12:37:09;;;;;;;7.00;5.10;;;;;;;;;;106760;1300;25454;-41
2022/10/01 12:39:43;;;;;;;7.50;5.70;;;;;;;;;;106782;1299;22514;-40
2022/10/01 12:42:21;;;;;;;8.70;5.40;;;;;;;;;;106802;1303;23724;-41
2022/10/01 12:44:55;;;;;;;7.90;5.30;;;;;;;;;;106830;1300;22563;-40
2022/10/01 12:47:37;;;;;;;7.90;4.90;;;;;;;;;;106797;1295;22515;-40
2022/10/01 12:50:12;;;;;;;7.20;5.30;;;;;;;;;;106740;1291;22561;-38
2022/10/01 12:52:43;;;;;;;7.50;5.40;;;;;;;;;;106793;1297;25257;-36
2022/10/01 12:55:33;;;;;;;7.90;5.20;;;;;;;;;;106797;1295;23803;-35
2022/10/01 12:58:06;;;;;;;9.40;5.70;;;;;;;;;;106785;1297;23185;-36
2022/10/01 13:00:39;;;;;;;9.30;5.50;;;;;;;;;;106793;1295;25633;-35
2022/10/01 13:03:07;;;;;;;;;;;;;;;;;;106787;1295;22935;-39
2022/10/01 13:05:40;;;;;;;8.60;5.20;;;;;;;;;;106776;1300;23787;-40
2022/10/01 13:08:20;;;;;;;9.40;5.70;;;;;;;;;;106744;1298;23677;-37
2022/10/01 13:10:55;;;;;;;9.80;5.70;;;;;;;;;;106663;1297;33860;-37
2022/10/01 13:13:25;;;;;;;10.40;5.70;;;;;;;;;;106476;1291;33663;-36
2022/10/01 13:15:59;;;;;;;8.80;5.50;;;;;;;;;;106511;1300;33954;-37
2022/10/01 13:45:34;;;;;;;8.40;5.50;;;;;;;;;;102336;1337;568341;-37
2022/10/01 13:48:24;;;;;;;8.90;5.00;;;;;;;;;;102446;1339;567214;-36
2022/10/01 13:50:55;;;;;;;7.20;5.30;;;;;;;;;;105538;1308;33152;-37
2022/10/01 13:53:25;;;;;;;8.70;5.10;;;;;;;;;;105536;1310;33697;-38
2022/10/01 13:55:55;;;;;;;8.00;5.40;;;;;;;;;;105535;1309;33538;-37
2022/10/01 13:58:32;;;;;;;8.30;5.00;;;;;;;;;;105381;1309;33890;-39
2022/10/01 14:01:02;;;;;;;8.60;4.80;;;;;;;;;;105147;1315;108094;-41
2022/10/01 14:03:40;;;;;;;8.30;5.10;;;;;;;;;;105559;1309;33438;-33
2022/10/01 14:06:15;;;;;;;7.70;5.20;;;;;;;;;;105808;1310;33113;-32
2022/10/01 14:08:46;;;;;;;7.20;4.60;;;;;;;;;;105909;1306;33095;-31
2022/10/01 14:16:57;;;;;;;16.10;8.50;;;;;;;;;;106009;1308;33582;-34
2022/10/01 14:19:27;;;;;;;12.30;8.00;;;;;;;;;;105866;1305;33676;-31
2022/10/01 14:22:01;;;;;;;10.00;6.50;;;;;;;;;;105992;1302;33557;-34
2022/10/01 14:24:36;;;;;;;12.00;6.30;;;;;;;;;;106025;1305;33168;-31
2022/10/01 14:27:12;;;;;;;11.20;6.20;;;;;;;;;;106018;1306;33757;-32
2022/10/01 14:29:50;;;;;;;9.90;6.30;;;;;;;;;;105862;1305;33554;-33
2022/10/01 14:32:24;;;;;;;10.50;6.00;;;;;;;;;;105809;1310;33085;-34
2022/10/01 14:34:57;;;;;;;9.80;6.10;;;;;;;;;;105845;1308;33701;-34
2022/10/01 14:37:27;;;;;;;10.10;5.90;;;;;;;;;;105838;1308;33162;-34
2022/10/01 14:40:12;;;;;;;10.00;5.60;;;;;;;;;;106010;1304;33605;-34
2022/10/01 14:42:41;;;;;;;9.40;5.50;;;;;;;;;;106083;1306;33517;-32
2022/10/01 14:45:21;;;;;;;9.00;5.70;;;;;;;;;;106020;1302;33599;-35
2022/10/01 14:47:59;;;;;;;7.50;5.20;;;;;;;;;;107597;1308;31225;-34
2022/10/01 14:50:29;;;;;;;8.20;5.30;;;;;;;;;;107415;1306;43532;-34
2022/10/01 14:52:58;;;;;;;8.50;5.40;;;;;;;;;;106234;1305;33430;-34
2022/10/01 14:55:27;;;;;;;8.40;5.20;;;;;;;;;;105685;1306;33471;-34
2022/10/01 14:57:57;;;;;;;6.50;4.70;;;;;;;;;;106155;1299;33551;-34
2022/10/01 15:00:29;;;;;;;8.00;5.10;;;;;;;;;;106269;1301;33616;-34
2022/10/01 15:03:11;;;;;;;7.70;4.90;;;;;;;;;;106351;1293;33806;-35
2022/10/01 15:05:40;;;;;;;7.00;4.90;;;;;;;;;;106480;1298;34019;-36
2022/10/01 15:08:13;;;;;;;7.40;5.20;;;;;;;;;;106435;1299;33612;-34
2022/10/01 15:10:45;;;;;;;7.90;5.20;;;;;;;;;;106342;1298;33802;-33
2022/10/01 15:13:20;;;;;;;7.80;5.10;;;;;;;;;;106473;1299;33207;-33
2022/10/01 15:15:49;;;;;;;6.80;4.80;;;;;;;;;;106371;1302;33596;-33
2022/10/01 15:18:18;;;;;;;7.90;5.30;;;;;;;;;;106497;1298;33674;-36
2022/10/01 15:20:52;;;;;;;8.00;4.60;;;;;;;;;;106339;1299;33715;-36
2022/10/01 15:23:22;;;;;;;7.60;5.00;;;;;;;;;;106359;1304;33398;-36
2022/10/01 15:25:51;;;;;;;7.80;4.90;;;;;;;;;;106347;1303;33978;-36
2022/10/01 15:28:26;;;;;;;6.80;4.40;;;;;;;;;;106347;1303;33870;-35
2022/10/01 15:30:56;;;;;;;8.10;4.70;;;;;;;;;;106414;1298;34064;-35
2022/10/01 15:33:28;;;;;;;7.00;4.90;;;;;;;;;;106464;1298;33580;-34
2022/10/01 15:35:58;;;;;;;7.90;5.10;;;;;;;;;;106454;1298;33425;-35